• Join FlightAware (Why Join?)
  • Login
  • US Flag 
09:54PM EDT


 

Airport Tracker/Info


-or-


 

Live Flight TrackerFlight Track Log ✈ TCF5894 ✈ 23-Apr-2013 ✈ KLGA - KBOS

Flight Track Log - Related Links

Times and Time Zones

All times are in EDT time to prevent confusion due to time zone crossing. See the TCF5894 flight status page for this flight to view local times or setup timezone preferences in your user account.

Time Position Orientation Groundspeed Altitude Reporting Facility
EDT Latitude Longitude Course Direction KTS MPH feet Rate Location/Type
08:59PM 40.7333 -73.8333 48° Northeast 175 201 1,700  Level New York TRACON
09:01PM 41.0394 -73.5513 41° Northeast  Level FlightAware Approximate
09:01PM 40.8383 -73.7350 35° Northeast 215 247 6,500  Level Boston Center
09:02PM 41.1075 -73.4689 44° Northeast  Level FlightAware Approximate
09:02PM 40.9033 -73.6869 29° Northeast 239 275 10,000  Level Boston Center
09:03PM 41.1738 -73.3838 44° Northeast  Level FlightAware Approximate
09:03PM 40.9728 -73.6331 30° Northeast 263 303 11,400  Level Boston Center
09:04PM 41.2315 -73.3028 48° Northeast  Level FlightAware Approximate
09:04PM 41.0419 -73.5822 29° Northeast 315 362 13,000  Level Boston Center
09:05PM 41.1431 -73.4958 33° Northeast 358 412 16,000 2,640 Climbing Boston Center
09:06PM 41.1858 -73.3558 68° East 363 418 18,300 1,500 Climbing Boston Center
09:07PM 41.2242 -73.2350 67° East 375 432 19,000 300 Climbing Boston Center
09:08PM 41.2647 -73.0944 69° East 388 447 19,000  Level Boston Center
09:09PM 41.3031 -72.9594 69° East 394 453 19,000  Level Boston Center
09:10PM 41.3453 -72.8078 70° East 394 453 19,000  Level Boston Center
09:11PM 41.3811 -72.6808 69° East 394 453 19,000  Level Boston Center
09:12PM 41.4250 -72.5286 69° East 394 453 19,000  Level Boston Center
09:13PM 41.4583 -72.4042 70° East 389 448 19,000  Level Boston Center
09:14PM 41.5000 -72.2628 68° East 394 453 19,000  Level Boston Center
09:15PM 41.5414 -72.1100 70° East 394 453 19,000 -600 Level Boston Center
09:16PM 41.5764 -71.9850 69° East 394 453 17,800 -1,560 Descending Boston Center
09:17PM 41.6153 -71.8347 71° East 386 444 15,900 -1,680 Descending Boston Center
09:18PM 41.6478 -71.7206 69° East 373 429 14,500 -1,500 Descending Boston Center
09:19PM 41.6822 -71.5894 71° East 353 406 12,900 -1,560 Descending Boston Center
09:20PM 41.7106 -71.4833 70° East 313 360 11,400 -1,020 Descending Boston Center
09:21PM 41.7517 -71.3967 58° Northeast 281 323 10,900 -300 Descending Boston Center
09:22PM 41.8072 -71.3233 45° Northeast 273 314 10,900 -480 Level Boston Center
09:23PM 41.8669 -71.2553 40° Northeast 280 322 10,000 -1,500 Descending Boston Center
09:24PM 41.9375 -71.2178 22° Northeast 269 310 8,000 -1,740 Descending Boston Center
09:25PM 42.0058 -71.1828 21° North 269 310 6,600 -1,500 Descending Boston Center
09:26PM 42.0700 -71.1453 23° Northeast 259 298 5,100 -1,260 Descending Boston Center
09:27PM 42.1167 -71.1167 24° Northeast 242 278 4,500 -660 Descending KA90
09:28PM 42.1667 -71.1000 14° North 182 209 4,000 -600 Descending KA90
09:29PM 42.2167 -71.0833 14° North 145 167 3,300 -840 Descending KA90
09:30PM 42.2500 -71.0667 20° North 147 169 2,400 -900 Descending KA90